Time;durP1;ratioP1;P1;durP2;ratioP2;P2;SDS_P1;SDS_P2;PMS_P1;PMS_P2;Temp;Humidity;BMP_temperature;BMP_pressure;BME280_temperature;BME280_humidity;BME280_pressure;Samples;Min_cycle;Max_cycle;Signal;HPM_P1;HPM_P2
2023/11/06 00:08:07;;;;;;;22.02;3.30;;;;;;;20.03;100.00;101182.88;21215419;27;20043;-76
2023/11/06 00:18:32;;;;;;;25.75;3.47;;;;;;;19.96;100.00;101191.91;21212895;27;20051;-76
2023/11/06 00:28:55;;;;;;;24.38;3.28;;;;;;;19.95;100.00;101184.81;21214579;27;20111;-76
2023/11/06 00:39:19;;;;;;;24.33;3.65;;;;;;;19.88;100.00;101183.13;21180790;27;20043;-76
2023/11/06 00:49:41;;;;;;;29.42;4.03;;;;;;;19.84;100.00;101174.25;21211844;27;20035;-76
2023/11/06 01:00:10;;;;;;;31.40;4.30;;;;;;;19.79;100.00;101165.41;21196039;27;20078;-76
2023/11/06 01:10:32;;;;;;;34.63;4.18;;;;;;;19.71;100.00;101177.13;21195431;27;20046;-76
2023/11/06 01:20:56;;;;;;;27.02;3.38;;;;;;;19.64;100.00;101176.34;21201289;27;20071;-76
2023/11/06 01:31:19;;;;;;;30.83;3.38;;;;;;;19.50;100.00;101181.00;21197347;27;20059;-76
2023/11/06 01:41:46;;;;;;;28.50;3.72;;;;;;;19.36;100.00;101183.84;21196601;28;20043;-76
2023/11/06 01:52:13;;;;;;;25.75;3.30;;;;;;;19.33;100.00;101191.03;21196742;28;20052;-75
2023/11/06 02:02:38;;;;;;;25.27;3.80;;;;;;;19.19;100.00;101195.69;21199543;27;20057;-76
2023/11/06 02:13:00;;;;;;;25.58;3.33;;;;;;;19.10;100.00;101199.34;21226130;27;20035;-75
2023/11/06 02:23:25;;;;;;;16.85;2.90;;;;;;;19.06;100.00;101209.22;21221910;27;20051;-75
2023/11/06 02:33:48;;;;;;;25.80;3.50;;;;;;;19.08;100.00;101214.56;21212049;27;20054;-75
2023/11/06 02:44:13;;;;;;;19.70;3.08;;;;;;;19.10;100.00;101221.66;21187163;27;20047;-75
2023/11/06 02:54:35;;;;;;;23.85;3.08;;;;;;;19.13;100.00;101225.22;21224105;27;20051;-75
2023/11/06 03:04:59;;;;;;;20.95;3.85;;;;;;;19.08;100.00;101225.28;21218070;27;20134;-76
2023/11/06 03:15:22;;;;;;;17.13;2.30;;;;;;;18.91;100.00;101227.25;21221407;27;20075;-76
2023/11/06 03:25:46;;;;;;;27.02;3.35;;;;;;;18.96;100.00;101225.44;21220026;27;20250;-75
2023/11/06 03:36:09;;;;;;;18.02;2.33;;;;;;;18.79;100.00;101233.63;21205688;27;20100;-75
2023/11/06 03:46:33;;;;;;;21.50;3.65;;;;;;;18.91;100.00;101236.16;21205021;27;20047;-76
2023/11/06 03:56:56;;;;;;;19.63;3.05;;;;;;;19.04;100.00;101236.91;21212566;27;20051;-76
2023/11/06 04:07:21;;;;;;;16.10;2.50;;;;;;;19.12;100.00;101248.41;21202459;27;20130;-75
2023/11/06 04:17:44;;;;;;;20.55;3.40;;;;;;;19.09;100.00;101254.72;21215512;27;20066;-76
2023/11/06 04:28:09;;;;;;;25.38;3.38;;;;;;;18.94;100.00;101267.38;21194944;27;20050;-76
2023/11/06 04:38:31;;;;;;;20.25;2.45;;;;;;;18.75;100.00;101271.13;21200928;27;20166;-76
2023/11/06 04:48:55;;;;;;;19.52;3.25;;;;;;;18.66;100.00;101281.00;21213048;27;20096;-76
2023/11/06 04:59:18;;;;;;;16.35;2.88;;;;;;;18.69;100.00;101291.69;21198843;27;20057;-76
2023/11/06 05:09:42;;;;;;;23.60;3.30;;;;;;;18.76;100.00;101303.22;21194747;27;20047;-76
2023/11/06 05:20:09;;;;;;;17.23;2.72;;;;;;;18.92;100.00;101307.50;21210130;27;20107;-76
2023/11/06 05:30:34;;;;;;;21.10;3.00;;;;;;;19.22;100.00;101308.09;21211683;27;20043;-76
2023/11/06 05:40:57;;;;;;;23.15;2.35;;;;;;;19.92;100.00;101309.91;21221605;27;20050;-76
2023/11/06 05:51:21;;;;;;;27.27;2.90;;;;;;;20.61;100.00;101327.63;21218896;27;20142;-76
2023/11/06 06:01:43;;;;;;;17.90;2.70;;;;;;;21.25;100.00;101339.09;21197733;27;20103;-76
2023/11/06 06:12:11;;;;;;;14.73;2.00;;;;;;;21.84;100.00;101340.56;21209975;27;20104;-76
2023/11/06 06:22:33;;;;;;;23.90;3.20;;;;;;;22.46;100.00;101360.66;21221352;27;20051;-77
2023/11/06 06:32:57;;;;;;;16.63;2.20;;;;;;;23.02;100.00;101362.00;21219267;27;20138;-77
2023/11/06 06:43:20;;;;;;;20.65;2.05;;;;;;;23.55;100.00;101365.09;21207921;27;20051;-77
2023/11/06 06:53:46;;;;;;;21.20;2.58;;;;;;;24.20;100.00;101392.84;21200344;27;20492;-77
2023/11/06 07:04:08;;;;;;;20.02;2.35;;;;;;;24.70;93.94;101381.34;21190616;27;20510;-77
2023/11/06 07:14:33;;;;;;;16.42;2.38;;;;;;;25.20;85.02;101396.81;21221803;27;20056;-75
2023/11/06 07:24:56;;;;;;;13.90;1.67;;;;;;;25.75;81.91;101402.94;21204976;27;20043;-75
2023/11/06 07:35:21;;;;;;;23.27;2.65;;;;;;;26.34;72.15;101406.13;21218416;27;20047;-76
2023/11/06 07:45:43;;;;;;;17.58;2.53;;;;;;;26.76;64.20;101418.88;21204738;27;20039;-76
2023/11/06 07:56:10;;;;;;;15.30;2.22;;;;;;;27.31;59.03;101420.16;21218715;27;20095;-77
2023/11/06 08:06:33;;;;;;;25.40;2.40;;;;;;;27.83;62.04;101443.19;21211899;27;20059;-76
2023/11/06 08:16:58;;;;;;;21.38;2.67;;;;;;;27.99;57.89;101438.84;21201655;27;20096;-76
2023/11/06 08:27:20;;;;;;;19.33;2.30;;;;;;;27.84;57.14;101446.81;21214220;27;20115;-76
2023/11/06 08:37:45;;;;;;;18.20;2.45;;;;;;;28.09;56.20;101439.31;21215495;27;20043;-76
2023/11/06 08:48:08;;;;;;;22.30;2.23;;;;;;;28.39;52.34;101443.34;21214834;27;20062;-76
2023/11/06 08:58:36;;;;;;;18.70;2.70;;;;;;;28.52;49.85;101435.47;21211917;27;20051;-77
2023/11/06 09:08:58;;;;;;;17.15;2.38;;;;;;;28.75;46.50;101418.94;21199213;27;20047;-77
2023/11/06 09:19:22;;;;;;;25.10;2.88;;;;;;;28.82;46.21;101422.25;21197538;27;20065;-76
2023/11/06 09:29:46;;;;;;;22.02;2.30;;;;;;;29.10;44.62;101419.91;21214417;27;20586;-76
2023/11/06 09:40:21;;;;;;;24.38;3.65;;;;;;;29.05;43.92;101416.56;21210943;28;20055;-76
2023/11/06 09:50:48;;;;;;;16.70;1.80;;;;;;;29.04;44.34;101422.94;21187907;28;20104;-76
2023/11/06 10:01:12;;;;;;;23.48;2.55;;;;;;;29.06;45.09;101412.88;21206413;28;20050;-76
2023/11/06 10:11:37;;;;;;;25.02;2.67;;;;;;;29.17;44.20;101402.31;21198879;27;20116;-75
2023/11/06 10:22:12;;;;;;;33.55;3.30;;;;;;;29.08;44.49;101399.22;21188335;27;20043;-75
2023/11/06 10:32:35;;;;;;;31.95;2.80;;;;;;;28.76;43.98;101398.09;21208398;27;20043;-76
2023/11/06 10:43:02;;;;;;;25.23;3.13;;;;;;;29.21;43.63;101389.47;21223335;27;20043;-76
2023/11/06 10:53:28;;;;;;;34.90;3.50;;;;;;;29.18;43.19;101365.13;21212022;27;20151;-75
2023/11/06 11:03:55;;;;;;;22.50;3.23;;;;;;;29.04;42.31;101354.97;21197426;27;20047;-76
2023/11/06 11:14:17;;;;;;;;;;;;;;;28.88;41.92;101357.56;21200598;27;20043;-76
2023/11/06 11:25:00;;;;;;;27.63;3.28;;;;;;;28.68;42.77;101351.38;21197698;27;19920;-75
2023/11/06 11:36:00;;;;;;;24.80;3.45;;;;;;;28.17;43.14;101336.66;21215624;27;20047;-75
2023/11/06 11:46:53;;;;;;;25.65;2.92;;;;;;;27.92;43.52;101344.19;21217602;27;20552;-76
2023/11/06 11:57:16;;;;;;;29.85;3.08;;;;;;;27.89;43.39;101330.78;21167983;27;20040;-75
2023/11/06 12:07:43;;;;;;;23.23;2.88;;;;;;;27.96;43.15;101332.25;21213788;27;20103;-76
2023/11/06 12:18:09;;;;;;;26.27;3.63;;;;;;;28.12;43.83;101314.25;21195629;27;20495;-76
2023/11/06 12:28:34;;;;;;;27.03;2.97;;;;;;;28.37;44.17;101314.84;21257729;27;20039;-75
2023/11/06 12:38:56;;;;;;;31.80;4.70;;;;;;;28.59;44.29;101306.50;21245582;27;20115;-74
2023/11/06 12:49:22;;;;;;;30.02;2.95;;;;;;;28.51;44.50;101301.44;21191585;27;20466;-76
2023/11/06 12:59:45;;;;;;;33.50;4.70;;;;;;;28.26;50.94;101300.03;21127487;27;20360;-76
2023/11/06 13:10:10;;;;;;;40.35;5.53;;;;;;;27.82;68.46;101302.16;21138576;27;20063;-75
2023/11/06 13:20:37;;;;;;;51.42;6.25;;;;;;;27.46;83.46;101301.97;21147257;27;20058;-76
2023/11/06 13:31:02;;;;;;;44.17;6.70;;;;;;;27.02;92.97;101302.16;21134509;27;20040;-77
2023/11/06 13:41:25;;;;;;;50.72;6.10;;;;;;;26.72;98.55;101298.91;21126093;28;20277;-76
2023/11/06 13:51:50;;;;;;;66.47;8.00;;;;;;;26.44;100.00;101301.91;21170596;28;20557;-75
2023/11/06 14:02:19;;;;;;;69.00;8.38;;;;;;;26.24;100.00;101306.34;21206752;27;20051;-75
2023/11/06 14:12:43;;;;;;;61.15;7.75;;;;;;;26.16;100.00;101307.53;21196318;27;20047;-76
2023/11/06 14:23:06;;;;;;;64.18;9.48;;;;;;;26.05;100.00;101306.19;21197244;27;20046;-75
2023/11/06 14:33:31;;;;;;;65.38;8.93;;;;;;;25.79;100.00;101320.75;21208685;27;20050;-76
2023/11/06 14:43:54;;;;;;;61.97;8.15;;;;;;;25.50;100.00;101332.63;21188405;27;20390;-75
2023/11/06 14:54:20;;;;;;;71.50;9.98;;;;;;;25.27;100.00;101328.03;21206528;27;20043;-75
2023/11/06 15:04:44;;;;;;;67.30;8.48;;;;;;;25.06;100.00;101330.66;21193269;27;20045;-75
2023/11/06 15:15:16;;;;;;;57.95;8.18;;;;;;;24.86;100.00;101343.00;21199639;27;20050;-75
2023/11/06 15:25:38;;;;;;;84.55;10.27;;;;;;;24.69;100.00;101330.97;21196406;27;20081;-76
2023/11/06 15:36:04;;;;;;;66.47;9.00;;;;;;;24.54;100.00;101335.97;21191847;27;20046;-74
2023/11/06 15:46:27;;;;;;;86.78;11.07;;;;;;;24.40;100.00;101345.44;21202228;27;20092;-74
2023/11/06 15:56:51;;;;;;;67.65;9.23;;;;;;;24.31;100.00;101354.72;21203086;27;20051;-74
2023/11/06 16:07:14;;;;;;;79.65;9.90;;;;;;;24.21;100.00;101362.25;21178236;27;20039;-74
2023/11/06 16:17:39;;;;;;;96.60;10.82;;;;;;;24.12;100.00;101370.56;21208901;27;20066;-75
2023/11/06 16:28:03;;;;;;;89.20;11.48;;;;;;;24.07;100.00;101385.13;21197146;27;20047;-74
2023/11/06 16:38:29;;;;;;;98.40;11.30;;;;;;;23.99;100.00;101395.25;21177488;27;20047;-74
2023/11/06 16:48:52;;;;;;;99.82;11.70;;;;;;;23.93;100.00;101411.63;21207664;27;20063;-73
2023/11/06 16:59:16;;;;;;;69.38;8.95;;;;;;;23.88;100.00;101416.28;21244948;27;20120;-75
2023/11/06 17:09:41;;;;;;;91.75;10.13;;;;;;;23.77;100.00;101422.84;21186323;27;20047;-74
2023/11/06 17:20:10;;;;;;;85.63;10.65;;;;;;;23.68;100.00;101423.13;21196221;27;20397;-74
2023/11/06 17:30:33;;;;;;;89.63;11.90;;;;;;;23.64;100.00;101429.50;21246303;27;20137;-75
2023/11/06 17:40:57;;;;;;;88.57;10.15;;;;;;;23.55;100.00;101442.38;21245530;27;20506;-75
2023/11/06 17:51:21;;;;;;;84.75;10.68;;;;;;;23.47;100.00;101452.44;21186284;27;20480;-75
2023/11/06 18:01:46;;;;;;;92.68;10.43;;;;;;;23.38;100.00;101457.13;21190715;27;20043;-75
2023/11/06 18:12:09;;;;;;;93.57;10.70;;;;;;;23.37;100.00;101478.72;21239446;27;20046;-75
2023/11/06 18:22:32;;;;;;;93.82;12.18;;;;;;;23.37;100.00;101494.91;21229017;27;20039;-74
2023/11/06 18:32:55;;;;;;;68.72;8.60;;;;;;;23.24;100.00;101529.34;21189172;27;20042;-73
2023/11/06 18:43:19;;;;;;;69.35;8.98;;;;;;;23.11;100.00;101527.00;21178417;27;20035;-75
2023/11/06 18:53:44;;;;;;;63.20;7.57;;;;;;;23.14;100.00;101532.31;21228943;27;20062;-75
2023/11/06 19:04:10;;;;;;;53.78;7.72;;;;;;;23.05;100.00;101531.59;21280642;27;20050;-74
2023/11/06 19:14:34;;;;;;;53.75;7.47;;;;;;;22.93;100.00;101539.97;21218413;27;20376;-75
2023/11/06 19:25:01;;;;;;;50.58;6.97;;;;;;;22.82;100.00;101547.44;21219881;27;20138;-74
2023/11/06 19:35:23;;;;;;;58.08;8.35;;;;;;;22.58;100.00;101556.88;21177454;27;20047;-74
2023/11/06 19:45:48;;;;;;;58.80;7.25;;;;;;;22.55;100.00;101553.38;21227624;27;20430;-76
2023/11/06 19:56:11;;;;;;;63.80;7.55;;;;;;;22.55;100.00;101556.06;21174888;27;20138;-75
2023/11/06 20:06:36;;;;;;;59.22;7.20;;;;;;;22.48;100.00;101562.50;21137758;27;20094;-76
2023/11/06 20:17:01;;;;;;;47.78;6.07;;;;;;;22.41;100.00;101556.34;21178099;27;20055;-75
2023/11/06 20:27:25;;;;;;;51.10;7.53;;;;;;;22.26;100.00;101562.91;21138367;27;20061;-75
2023/11/06 20:37:48;;;;;;;64.82;9.57;;;;;;;22.08;100.00;101552.50;21198003;27;20054;-75
2023/11/06 20:48:12;;;;;;;53.30;10.45;;;;;;;21.95;100.00;101561.69;21177816;27;20144;-74
2023/11/06 20:58:35;;;;;;;51.13;8.93;;;;;;;21.80;100.00;101557.47;21164720;27;20101;-74
2023/11/06 21:08:59;;;;;;;53.55;8.30;;;;;;;21.72;100.00;101543.31;21116566;27;20104;-74
2023/11/06 21:19:22;;;;;;;65.53;8.23;;;;;;;21.63;100.00;101537.19;21083384;27;20073;-74
2023/11/06 21:29:46;;;;;;;60.80;9.15;;;;;;;21.38;100.00;101537.63;21116926;27;20047;-75
2023/11/06 21:40:10;;;;;;;63.10;9.20;;;;;;;21.33;100.00;101541.31;21130052;28;20040;-75
2023/11/06 21:50:35;;;;;;;70.60;9.27;;;;;;;21.18;100.00;101542.41;21094872;28;20043;-74
2023/11/06 22:00:58;;;;;;;66.15;8.77;;;;;;;21.13;100.00;101546.06;21171007;28;20048;-74
2023/11/06 22:11:23;;;;;;;60.78;8.30;;;;;;;21.03;100.00;101546.19;21216721;28;20055;-75
2023/11/06 22:21:45;;;;;;;61.75;7.53;;;;;;;20.99;100.00;101538.22;21202155;27;20040;-75
2023/11/06 22:32:10;;;;;;;69.35;8.18;;;;;;;20.94;100.00;101529.31;21264404;27;20088;-75
2023/11/06 22:42:34;;;;;;;63.88;8.73;;;;;;;20.90;100.00;101531.16;21211354;27;20209;-75
2023/11/06 22:52:58;;;;;;;55.50;8.00;;;;;;;20.86;100.00;101536.59;21185302;27;20047;-75
2023/11/06 23:03:20;;;;;;;67.75;7.90;;;;;;;20.81;100.00;101542.03;21187651;27;20389;-75
2023/11/06 23:13:45;;;;;;;58.72;7.65;;;;;;;20.82;100.00;101548.28;21148199;27;20047;-75
2023/11/06 23:24:08;;;;;;;69.93;8.65;;;;;;;20.81;100.00;101558.13;21213409;27;20490;-74
2023/11/06 23:34:32;;;;;;;73.75;8.10;;;;;;;20.85;100.00;101564.34;21197803;27;20043;-74
2023/11/06 23:44:55;;;;;;;62.72;7.65;;;;;;;20.85;100.00;101559.00;21144263;27;20063;-74
2023/11/06 23:55:20;;;;;;;62.67;7.35;;;;;;;20.80;100.00;101556.38;21170889;27;20055;-75
